FTTJ

Details ICAO FTTJ (NDJ)
Name N'Diamena Hassan Djamous
Region Chad
Timezone Africa/Ndjamena (UTC+1.0)
Plans Departing 157
Arriving 143
Stats Elevation 967 ft / 295 m (AMSL)
Location 12.133700° 15.034000°
Runways 1
Magnetic Variation 1.267° E
Sunrise 2018-10-16 04:50:49 UTC / 2018-10-16 05:50:49 Local
Sunset 2018-10-16 16:42:23 UTC / 2018-10-16 17:42:23 Local
Advertisement - Login to hide

Runways

ID Width Length Bearing (true/mag) Surface Threshold Overrun Markings Lighting
05 148 ft / 45 m 9,219 ft / 2,810 m 45.73° / 44.46° ASPHALT 0 ft / 0 m 0 ft / 0 m PREC-APP CENTERLINE EDGE THRESHOLD MALS TDZ REIL-UNI
23 148 ft / 45 m 9,219 ft / 2,810 m 225.74° / 224.47° ASPHALT 0 ft / 0 m 0 ft / 0 m PREC-APP CENTERLINE EDGE THRESHOLD TDZ REIL-UNI

Approach Navaids

Runway Type Ident Frequency Range Bearing (true/mag) Slope Elevation
05 LOC-ILS IFL 109.90 MHz 18 nm / 33 km 45.80° / 44.53° - 968 ft / 295 m (AMSL)
05 GS IFL 109.90 MHz 10 nm / 19 km 46.44° / 45.17° 3.00° 968 ft / 295 m (AMSL)

Map

Weather


0- 5 10 15 20 25 30 35+ Temperature / °C

Clouds and Precipitation
Forecast for 2018-10-16 18:00 UTC. Updated 12 minutes ago

Ground ~20,000 ft ~40,000 ft Winds

METAR

FTTJ 161500Z 04014KT 040V100 CAVOK 40/05 Q1008 NOSIG

TAF

TAF FTTJ 161100Z 1612/1718 08006KT 8000 NSC

Frequencies

Tower 119.70 MHz
Recorded 120.50 MHz ATIS
Warning: Do not use this data for real-world aviation or navigation. No guarantee of current accuracy is given.